Time;durP1;ratioP1;P1;durP2;ratioP2;P2;SDS_P1;SDS_P2;PMS_P1;PMS_P2;Temp;Humidity;BMP_temperature;BMP_pressure;BME280_temperature;BME280_humidity;BME280_pressure;Samples;Min_cycle;Max_cycle;Signal;HPM_P1;HPM_P2
2024/01/10 00:00:18;;;;;;;;;;;;;;;17.93;35.07;102229.94;5036635;28;1056;-59
2024/01/10 00:02:44;;;;;;;;;;;;;;;16.89;37.01;102224.22;5019155;28;1112;-59
2024/01/10 00:05:10;;;;;;;;;;;;;;;16.53;37.74;102236.28;5036758;28;1127;-59
2024/01/10 00:07:36;;;;;;;;;;;;;;;18.20;34.72;102235.66;5036820;28;881;-59
2024/01/10 00:10:02;;;;;;;;;;;;;;;16.92;37.19;102223.75;5037173;28;1179;-59
2024/01/10 00:12:33;;;;;;;;;;;;;;;16.49;37.90;102235.06;5035803;28;1973;-59
2024/01/10 00:14:58;;;;;;;;;;;;;;;18.08;34.89;102240.38;5036993;28;985;-59
2024/01/10 00:17:24;;;;;;;;;;;;;;;16.84;37.09;102247.97;5036962;28;1140;-59
2024/01/10 00:19:49;;;;;;;;;;;;;;;18.38;34.48;102244.75;5036804;28;1211;-58
2024/01/10 00:22:15;;;;;;;;;;;;;;;18.04;34.85;102242.78;5036847;28;1144;-59
2024/01/10 00:24:41;;;;;;;;;;;;;;;17.03;36.67;102244.06;5036315;28;2107;-59
2024/01/10 00:27:06;;;;;;;;;;;;;;;17.13;36.77;102253.59;5036823;28;1115;-58
2024/01/10 00:29:32;;;;;;;;;;;;;;;18.66;33.78;102246.56;5036651;28;1156;-58
2024/01/10 00:31:59;;;;;;;;;;;;;;;17.17;36.63;102254.81;5036337;28;1902;-58
2024/01/10 00:34:25;;;;;;;;;;;;;;;16.76;37.24;102261.00;5036095;28;1493;-58
2024/01/10 00:36:50;;;;;;;;;;;;;;;17.92;35.26;102264.03;5036121;28;1052;-58
2024/01/10 00:39:16;;;;;;;;;;;;;;;17.75;35.51;102270.31;5036191;28;1108;-58
2024/01/10 00:41:42;;;;;;;;;;;;;;;16.90;37.21;102267.13;5036111;28;1017;-59
2024/01/10 00:44:08;;;;;;;;;;;;;;;18.39;34.42;102274.78;5035589;28;981;-60
2024/01/10 00:46:33;;;;;;;;;;;;;;;17.74;35.54;102268.63;5036154;28;993;-59
2024/01/10 00:48:59;;;;;;;;;;;;;;;17.10;36.75;102285.16;5018458;28;993;-59
2024/01/10 00:51:24;;;;;;;;;;;;;;;18.59;33.99;102276.22;5035643;28;1902;-59
2024/01/10 00:53:50;;;;;;;;;;;;;;;17.22;36.29;102272.25;5035510;28;1834;-59
2024/01/10 00:56:16;;;;;;;;;;;;;;;16.77;37.47;102281.06;5035803;28;893;-60
2024/01/10 00:58:42;;;;;;;;;;;;;;;17.37;36.36;102274.47;5036199;28;1113;-59
2024/01/10 01:01:07;;;;;;;;;;;;;;;17.97;35.00;102280.66;5035606;28;1143;-61
2024/01/10 01:03:33;;;;;;;;;;;;;;;16.95;36.86;102263.66;5036037;28;1101;-60
2024/01/10 01:05:58;;;;;;;;;;;;;;;18.00;35.31;102282.91;5036093;28;1091;-61
2024/01/10 01:08:24;;;;;;;;;;;;;;;17.53;35.76;102269.28;5035490;28;1064;-60
2024/01/10 01:10:49;;;;;;;;;;;;;;;16.83;37.10;102274.63;5035653;28;1149;-60
2024/01/10 01:13:15;;;;;;;;;;;;;;;16.46;38.11;102272.06;5035611;28;1973;-60
2024/01/10 01:15:41;;;;;;;;;;;;;;;18.22;34.83;102268.44;5035935;28;1112;-60
2024/01/10 01:18:06;;;;;;;;;;;;;;;17.00;37.05;102273.91;5035672;28;1062;-60
2024/01/10 01:20:32;;;;;;;;;;;;;;;16.57;37.66;102273.16;5036068;28;854;-60
2024/01/10 01:22:58;;;;;;;;;;;;;;;18.30;34.36;102260.59;5035075;28;1859;-60
2024/01/10 01:25:23;;;;;;;;;;;;;;;17.58;35.76;102263.91;5035393;28;1028;-60
2024/01/10 01:27:49;;;;;;;;;;;;;;;16.76;37.28;102263.75;5035769;28;984;-61
2024/01/10 01:30:15;;;;;;;;;;;;;;;16.48;37.76;102271.81;5035702;28;1017;-60
2024/01/10 01:32:40;;;;;;;;;;;;;;;16.54;37.86;102265.41;5033643;28;1913;-60
2024/01/10 01:35:06;;;;;;;;;;;;;;;18.21;34.50;102253.81;5041809;28;1081;-60
2024/01/10 01:37:31;;;;;;;;;;;;;;;17.58;35.52;102263.91;5038989;28;1039;-58
2024/01/10 01:39:57;;;;;;;;;;;;;;;16.84;37.06;102269.94;5035678;28;1112;-58
2024/01/10 01:42:23;;;;;;;;;;;;;;;16.38;37.89;102273.25;5035491;28;1029;-59
2024/01/10 01:44:49;;;;;;;;;;;;;;;18.15;34.55;102268.59;5035451;28;984;-59
2024/01/10 01:47:14;;;;;;;;;;;;;;;18.34;34.19;102263.69;5035553;28;1099;-59
2024/01/10 01:49:42;;;;;;;;;;;;;;;17.06;36.51;102260.06;5035380;28;1120;-59
2024/01/10 01:52:08;;;;;;;;;;;;;;;16.62;37.56;102262.31;5018143;28;1976;-59
2024/01/10 01:54:34;;;;;;;;;;;;;;;18.30;34.51;102265.28;5035386;28;2067;-60
2024/01/10 01:56:59;;;;;;;;;;;;;;;17.73;35.25;102263.38;5035093;28;884;-60
2024/01/10 01:59:25;;;;;;;;;;;;;;;16.86;37.11;102265.91;5017666;28;1009;-61
2024/01/10 02:01:51;;;;;;;;;;;;;;;17.80;35.29;102261.31;5035357;28;1055;-61
2024/01/10 02:04:17;;;;;;;;;;;;;;;17.76;35.27;102257.38;5017506;28;1028;-61
2024/01/10 02:06:42;;;;;;;;;;;;;;;16.81;37.10;102259.44;5035130;28;1121;-63
2024/01/10 02:09:08;;;;;;;;;;;;;;;17.49;36.13;102248.84;5035061;28;874;-62
2024/01/10 02:11:34;;;;;;;;;;;;;;;17.99;34.91;102239.94;5034790;28;1973;-62
2024/01/10 02:13:59;;;;;;;;;;;;;;;16.89;36.84;102248.13;5035186;28;1136;-62
2024/01/10 02:16:25;;;;;;;;;;;;;;;18.42;34.40;102238.47;5017532;28;1390;-60
2024/01/10 02:18:51;;;;;;;;;;;;;;;17.42;35.75;102233.34;5035009;28;1091;-61
2024/01/10 02:21:20;;;;;;;;;;;;;;;16.80;37.25;102241.28;5034771;28;900;-60
2024/01/10 02:23:45;;;;;;;;;;;;;;;17.94;35.30;102246.19;5034610;28;2083;-60
2024/01/10 02:26:11;;;;;;;;;;;;;;;18.00;34.93;102238.84;5035259;28;1081;-60
2024/01/10 02:28:36;;;;;;;;;;;;;;;16.92;36.95;102244.91;5034900;28;1024;-60
2024/01/10 02:31:02;;;;;;;;;;;;;;;16.60;37.62;102242.47;5034914;28;1076;-60
2024/01/10 02:33:28;;;;;;;;;;;;;;;16.99;36.96;102234.63;5034989;28;1905;-61
2024/01/10 02:35:54;;;;;;;;;;;;;;;18.06;34.64;102226.88;5036328;28;1126;-61
2024/01/10 02:38:23;;;;;;;;;;;;;;;16.79;36.95;102223.13;5039036;28;1418;-60
2024/01/10 02:40:48;;;;;;;;;;;;;;;16.67;37.58;102228.63;5038255;28;1087;-60
2024/01/10 02:43:14;;;;;;;;;;;;;;;18.28;34.27;102228.88;5038568;28;1101;-60
2024/01/10 02:45:39;;;;;;;;;;;;;;;16.92;36.63;102232.00;5038018;28;1036;-60
2024/01/10 02:48:05;;;;;;;;;;;;;;;18.23;34.57;102232.41;5038554;28;1048;-60
2024/01/10 02:50:31;;;;;;;;;;;;;;;17.91;34.98;102240.38;5038493;28;1136;-60
2024/01/10 02:52:56;;;;;;;;;;;;;;;17.03;36.50;102230.31;5038236;28;1901;-59
2024/01/10 02:55:22;;;;;;;;;;;;;;;16.55;37.60;102243.19;5038422;28;1068;-60
2024/01/10 02:57:47;;;;;;;;;;;;;;;16.80;37.36;102239.38;5037890;28;1505;-60
2024/01/10 03:00:13;;;;;;;;;;;;;;;18.01;34.58;102239.72;5037972;28;1107;-60
2024/01/10 03:02:38;;;;;;;;;;;;;;;16.81;37.07;102252.03;5037909;28;1036;-60
2024/01/10 03:05:04;;;;;;;;;;;;;;;17.35;35.96;102240.88;5037775;28;1080;-60
2024/01/10 03:07:30;;;;;;;;;;;;;;;17.69;35.25;102238.25;5038569;28;1132;-60
2024/01/10 03:09:55;;;;;;;;;;;;;;;17.39;35.95;102246.72;5037550;28;850;-60
2024/01/10 03:12:21;;;;;;;;;;;;;;;18.75;33.50;102242.31;5038053;28;1906;-60
2024/01/10 03:14:47;;;;;;;;;;;;;;;17.61;35.21;102234.00;5037618;28;1217;-60
2024/01/10 03:17:12;;;;;;;;;;;;;;;16.91;36.67;102232.22;5037780;28;1143;-59
2024/01/10 03:19:42;;;;;;;;;;;;;;;16.57;37.36;102237.47;5037507;28;1036;-60
2024/01/10 03:22:08;;;;;;;;;;;;;;;18.39;34.16;102232.66;5038102;28;1077;-60
2024/01/10 03:24:34;;;;;;;;;;;;;;;17.71;35.03;102235.25;5037333;28;2191;-60
2024/01/10 03:26:59;;;;;;;;;;;;;;;16.89;36.76;102229.72;5037562;28;1056;-60
2024/01/10 03:29:25;;;;;;;;;;;;;;;17.63;35.62;102228.25;5037767;28;1057;-60
2024/01/10 03:31:50;;;;;;;;;;;;;;;17.60;35.26;102223.25;5037340;28;1977;-61
2024/01/10 03:34:17;;;;;;;;;;;;;;;16.80;36.90;102222.06;5037262;28;1091;-60
2024/01/10 03:36:43;;;;;;;;;;;;;;;17.98;34.92;102221.78;5037310;28;1058;-60
2024/01/10 03:39:09;;;;;;;;;;;;;;;17.34;35.84;102216.38;5037789;28;1156;-60
2024/01/10 03:41:34;;;;;;;;;;;;;;;16.71;37.20;102216.91;5037599;28;1016;-61
2024/01/10 03:44:00;;;;;;;;;;;;;;;17.61;35.50;102225.75;5037076;28;1124;-60
2024/01/10 03:46:25;;;;;;;;;;;;;;;18.20;34.36;102227.41;5037415;28;1139;-61
2024/01/10 03:48:52;;;;;;;;;;;;;;;16.94;36.62;102209.75;5037500;28;1036;-61
2024/01/10 03:51:18;;;;;;;;;;;;;;;17.39;35.94;102225.56;5037897;28;1199;-61
2024/01/10 03:53:43;;;;;;;;;;;;;;;17.69;35.05;102219.00;5037196;28;1981;-61
2024/01/10 03:56:09;;;;;;;;;;;;;;;16.80;36.94;102230.31;5037303;28;1110;-60
2024/01/10 03:58:35;;;;;;;;;;;;;;;16.45;37.53;102225.63;5037617;28;1067;-61
2024/01/10 04:01:04;;;;;;;;;;;;;;;17.81;35.27;102226.38;5037146;28;1111;-61
2024/01/10 04:03:30;;;;;;;;;;;;;;;17.70;35.13;102231.69;5037163;28;1021;-62
2024/01/10 04:05:55;;;;;;;;;;;;;;;16.98;36.67;102221.94;5037069;28;1076;-60
2024/01/10 04:08:21;;;;;;;;;;;;;;;18.60;33.53;102229.13;5036970;28;1460;-61
2024/01/10 04:10:46;;;;;;;;;;;;;;;17.51;35.27;102230.19;5037125;28;1219;-60
2024/01/10 04:13:12;;;;;;;;;;;;;;;16.82;36.65;102226.25;5037032;28;1984;-61
2024/01/10 04:15:37;;;;;;;;;;;;;;;18.38;33.96;102223.53;5037347;28;1163;-60
2024/01/10 04:18:03;;;;;;;;;;;;;;;17.87;34.65;102217.13;5036669;28;1095;-59
2024/01/10 04:20:28;;;;;;;;;;;;;;;16.98;36.42;102221.13;5036789;28;1071;-62
2024/01/10 04:22:54;;;;;;;;;;;;;;;16.53;37.47;102237.09;5036522;28;1044;-62
2024/01/10 04:25:20;;;;;;;;;;;;;;;17.85;34.73;102233.03;5036828;28;1131;-61
2024/01/10 04:27:46;;;;;;;;;;;;;;;17.46;35.24;102228.19;5019191;28;1140;-62
2024/01/10 04:30:12;;;;;;;;;;;;;;;16.66;37.10;102236.06;5036211;28;1056;-61
2024/01/10 04:32:37;;;;;;;;;;;;;;;18.32;34.16;102235.56;5036356;28;1906;-59
2024/01/10 04:35:03;;;;;;;;;;;;;;;17.85;34.73;102241.31;5035388;28;2067;-59
2024/01/10 04:37:29;;;;;;;;;;;;;;;17.14;36.02;102244.25;5036047;28;2266;-59
2024/01/10 04:39:54;;;;;;;;;;;;;;;18.80;33.22;102247.03;5036020;28;1921;-56
2024/01/10 04:42:20;;;;;;;;;;;;;;;17.50;35.41;102245.03;5035527;28;2238;-58
2024/01/10 04:44:45;;;;;;;;;;;;;;;17.47;35.58;102246.34;5034201;28;1947;-57
2024/01/10 04:47:11;;;;;;;;;;;;;;;18.21;34.08;102253.81;5035809;28;2198;-58
2024/01/10 04:49:37;;;;;;;;;;;;;;;17.20;35.93;102251.56;5035745;28;2348;-60
2024/01/10 04:52:02;;;;;;;;;;;;;;;17.36;35.75;102255.47;5035966;28;1902;-59
2024/01/10 04:54:28;;;;;;;;;;;;;;;18.67;33.34;102261.19;5035435;28;1067;-63
2024/01/10 04:56:53;;;;;;;;;;;;;;;17.19;35.90;102250.72;5040923;28;1512;-60
2024/01/10 04:59:19;;;;;;;;;;;;;;;16.74;36.74;102265.06;5035807;28;1065;-58
2024/01/10 05:01:45;;;;;;;;;;;;;;;18.26;34.21;102277.88;5043298;28;1012;-57
2024/01/10 05:04:10;;;;;;;;;;;;;;;18.01;34.55;102267.25;5035669;28;976;-58
2024/01/10 05:06:36;;;;;;;;;;;;;;;17.00;36.44;102274.75;5036308;28;1132;-58
2024/01/10 05:09:02;;;;;;;;;;;;;;;16.68;36.88;102283.31;5041963;28;1052;-56
2024/01/10 05:11:27;;;;;;;;;;;;;;;18.23;34.10;102281.09;5035828;28;1211;-56
2024/01/10 05:13:53;;;;;;;;;;;;;;;17.93;34.60;102273.97;5035532;28;1909;-58
2024/01/10 05:16:19;;;;;;;;;;;;;;;16.88;36.45;102283.00;5035449;28;1109;-56
2024/01/10 05:18:44;;;;;;;;;;;;;;;17.78;35.00;102289.06;5035516;28;1018;-59
2024/01/10 05:21:10;;;;;;;;;;;;;;;17.84;34.80;102289.16;5035638;28;2522;-59
2024/01/10 05:23:36;;;;;;;;;;;;;;;17.38;35.44;102292.63;5035533;28;1134;-58
2024/01/10 05:26:02;;;;;;;;;;;;;;;17.03;35.88;102296.25;5036075;28;1075;-59
2024/01/10 05:28:27;;;;;;;;;;;;;;;16.56;36.77;102301.69;5035979;28;937;-58
2024/01/10 05:30:53;;;;;;;;;;;;;;;16.32;37.25;102300.81;5035950;28;1005;-54
2024/01/10 05:33:19;;;;;;;;;;;;;;;16.04;37.72;102300.34;5034889;28;1909;-58
2024/01/10 05:35:45;;;;;;;;;;;;;;;17.17;35.74;102301.53;5035656;28;1061;-56
2024/01/10 05:38:11;;;;;;;;;;;;;;;17.36;35.20;102305.81;5036520;28;972;-58
2024/01/10 05:40:36;;;;;;;;;;;;;;;16.49;36.92;102310.03;5035194;28;1039;-56
2024/01/10 05:43:02;;;;;;;;;;;;;;;16.16;37.37;102302.28;5035179;28;1017;-56
2024/01/10 05:45:28;;;;;;;;;;;;;;;17.65;34.56;102308.59;5035161;28;993;-58
2024/01/10 05:47:53;;;;;;;;;;;;;;;17.07;35.30;102304.88;5035489;28;1094;-58
2024/01/10 05:50:19;;;;;;;;;;;;;;;16.39;36.71;102307.84;5041325;28;2500;-54
2024/01/10 05:52:45;;;;;;;;;;;;;;;16.28;36.98;102305.09;5040605;28;1984;-57
2024/01/10 05:55:10;;;;;;;;;;;;;;;17.77;34.33;102314.09;5035154;28;1138;-56
2024/01/10 05:57:36;;;;;;;;;;;;;;;17.56;34.39;102302.66;5035048;28;985;-57
2024/01/10 06:00:02;;;;;;;;;;;;;;;16.60;36.24;102311.97;5035503;28;1196;-58
2024/01/10 06:02:30;;;;;;;;;;;;;;;16.38;36.62;102306.22;5035216;28;997;-60
2024/01/10 06:04:56;;;;;;;;;;;;;;;17.85;34.11;102312.84;5017480;28;1270;-60
2024/01/10 06:07:21;;;;;;;;;;;;;;;17.32;34.77;102317.50;5035218;28;1221;-60
2024/01/10 06:09:47;;;;;;;;;;;;;;;16.49;36.57;102311.94;5035200;28;1036;-59
2024/01/10 06:12:13;;;;;;;;;;;;;;;16.31;36.66;102316.44;5038343;28;1970;-58
2024/01/10 06:14:38;;;;;;;;;;;;;;;17.83;34.13;102320.53;5042428;28;1144;-58
2024/01/10 06:17:04;;;;;;;;;;;;;;;17.38;34.47;102325.63;5039074;28;1046;-54
2024/01/10 06:19:33;;;;;;;;;;;;;;;16.52;36.36;102314.22;5035779;28;2382;-58
2024/01/10 06:21:59;;;;;;;;;;;;;;;16.30;36.69;102325.75;5038685;28;1278;-59
2024/01/10 06:24:25;;;;;;;;;;;;;;;17.77;34.00;102334.16;5038407;28;1432;-57
2024/01/10 06:26:50;;;;;;;;;;;;;;;17.28;34.80;102320.75;5038536;28;1104;-57
2024/01/10 06:29:16;;;;;;;;;;;;;;;16.49;36.27;102336.66;5038516;28;1163;-55
2024/01/10 06:31:41;;;;;;;;;;;;;;;16.47;36.31;102347.06;5038935;28;1974;-56
2024/01/10 06:34:07;;;;;;;;;;;;;;;17.94;33.65;102349.94;5038662;28;1267;-57
2024/01/10 06:36:33;;;;;;;;;;;;;;;17.34;34.53;102353.88;5046490;28;1243;-55
2024/01/10 06:38:59;;;;;;;;;;;;;;;16.47;36.22;102355.28;5039980;28;1034;-56
2024/01/10 06:41:24;;;;;;;;;;;;;;;16.48;36.27;102359.69;5038311;28;1061;-56
2024/01/10 06:43:53;;;;;;;;;;;;;;;17.87;33.65;102361.06;5038298;28;1051;-53
2024/01/10 06:46:19;;;;;;;;;;;;;;;17.36;34.33;102369.06;5039953;28;1183;-56
2024/01/10 06:48:44;;;;;;;;;;;;;;;16.59;35.78;102362.50;5039927;28;913;-56
2024/01/10 06:51:13;;;;;;;;;;;;;;;16.18;36.80;102372.34;5038002;28;2541;-55
2024/01/10 06:53:39;;;;;;;;;;;;;;;17.75;33.91;102368.50;5038347;28;1913;-55
2024/01/10 06:56:05;;;;;;;;;;;;;;;17.65;33.95;102382.88;5038109;28;1321;-55
2024/01/10 06:58:31;;;;;;;;;;;;;;;16.70;35.55;102384.72;5038090;28;946;-55
2024/01/10 07:00:56;;;;;;;;;;;;;;;16.36;36.12;102389.88;5038365;28;1125;-55
2024/01/10 07:03:22;;;;;;;;;;;;;;;17.85;33.53;102374.25;5038014;28;1255;-56
2024/01/10 07:05:47;;;;;;;;;;;;;;;17.40;34.29;102383.13;5038205;28;1071;-56
2024/01/10 07:08:14;;;;;;;;;;;;;;;16.63;35.91;102389.47;5037658;28;1092;-55
2024/01/10 07:10:39;;;;;;;;;;;;;;;16.30;36.40;102388.03;5041140;28;1226;-55
2024/01/10 07:13:05;;;;;;;;;;;;;;;17.77;33.94;102382.88;5043474;28;1942;-57
2024/01/10 07:15:30;;;;;;;;;;;;;;;17.38;34.41;102386.13;5046478;28;1352;-56
2024/01/10 07:17:56;;;;;;;;;;;;;;;16.59;36.00;102395.44;5034496;28;1203;-59
2024/01/10 07:20:23;;;;;;;;;;;;;;;16.53;35.89;102406.53;5037686;28;2555;-55
2024/01/10 07:22:49;;;;;;;;;;;;;;;17.98;33.31;102406.19;5037112;28;1127;-53
2024/01/10 07:25:15;;;;;;;;;;;;;;;17.17;34.63;102408.72;5037553;28;1452;-59
2024/01/10 07:27:41;;;;;;;;;;;;;;;16.39;36.08;102406.69;5037869;28;1096;-58
2024/01/10 07:30:13;;;;;;;;;;;;;;;17.22;34.80;102403.34;5037708;28;1298;-57
2024/01/10 07:32:45;;;;;;;;;;;;;;;17.96;33.17;102391.81;5038019;28;1973;-56
2024/01/10 07:35:11;;;;;;;;;;;;;;;16.80;35.35;102406.13;5030296;28;915;-55
2024/01/10 07:37:39;;;;;;;;;;;;;;;16.31;36.17;102409.75;5037039;28;1427;-57
2024/01/10 07:40:08;;;;;;;;;;;;;;;17.67;33.97;102410.13;5029074;28;1297;-59
2024/01/10 07:42:34;;;;;;;;;;;;;;;17.27;34.59;102406.22;5041702;28;1163;-57
2024/01/10 07:45:00;;;;;;;;;;;;;;;16.50;36.18;102410.56;5041727;28;1027;-59
2024/01/10 07:47:25;;;;;;;;;;;;;;;17.06;35.09;102408.47;5036637;28;1021;-59
2024/01/10 07:49:51;;;;;;;;;;;;;;;18.09;33.09;102396.19;5037188;28;1930;-55
2024/01/10 07:52:17;;;;;;;;;;;;;;;16.89;35.31;102399.25;5036942;28;1898;-55
2024/01/10 07:54:42;;;;;;;;;;;;;;;16.49;35.86;102397.06;5036743;28;1028;-60
2024/01/10 07:57:08;;;;;;;;;;;;;;;17.96;33.59;102391.81;5036725;28;1123;-56
2024/01/10 07:59:34;;;;;;;;;;;;;;;17.14;34.62;102398.19;5036890;28;861;-57
2024/01/10 08:02:00;;;;;;;;;;;;;;;16.45;36.04;102399.44;5037139;28;1111;-56
2024/01/10 08:04:29;;;;;;;;;;;;;;;17.00;35.30;102405.81;5036960;28;1052;-56
2024/01/10 08:06:55;;;;;;;;;;;;;;;18.21;33.06;102404.44;5036818;28;1056;-56
2024/01/10 08:09:21;;;;;;;;;;;;;;;17.11;34.74;102402.28;5036909;28;1139;-56
2024/01/10 08:11:47;;;;;;;;;;;;;;;16.41;36.06;102415.56;5036470;28;1917;-56
2024/01/10 08:14:13;;;;;;;;;;;;;;;17.24;34.65;102417.69;5036945;28;1122;-55
2024/01/10 08:16:39;;;;;;;;;;;;;;;18.06;33.00;102413.19;5035962;28;1076;-59
2024/01/10 08:19:04;;;;;;;;;;;;;;;16.83;35.25;102416.63;5043352;28;1412;-61
2024/01/10 08:21:30;;;;;;;;;;;;;;;16.35;36.18;102410.97;5031649;28;2483;-59
2024/01/10 08:23:56;;;;;;;;;;;;;;;16.92;35.27;102416.09;5033013;28;866;-58
2024/01/10 08:26:21;;;;;;;;;;;;;;;18.15;33.16;102411.75;5036363;28;1164;-58
2024/01/10 08:28:47;;;;;;;;;;;;;;;17.24;34.67;102412.19;5037183;28;1052;-57
2024/01/10 08:31:16;;;;;;;;;;;;;;;16.51;35.84;102415.00;5036009;28;1065;-60
2024/01/10 08:33:41;;;;;;;;;;;;;;;16.67;35.81;102421.72;5017836;28;1914;-62
2024/01/10 08:36:09;;;;;;;;;;;;;;;18.03;33.41;102419.19;5036089;28;871;-61
2024/01/10 08:38:35;;;;;;;;;;;;;;;17.30;34.63;102413.16;5035616;28;1044;-63
2024/01/10 08:41:01;;;;;;;;;;;;;;;16.52;35.87;102410.31;5036507;28;1120;-62
2024/01/10 08:43:27;;;;;;;;;;;;;;;16.18;36.68;102409.94;5035683;28;1122;-59
2024/01/10 08:45:52;;;;;;;;;;;;;;;17.68;34.05;102409.91;5036192;28;1132;-64
2024/01/10 08:48:18;;;;;;;;;;;;;;;17.88;33.52;102405.91;5035971;28;855;-63
2024/01/10 08:50:44;;;;;;;;;;;;;;;16.84;35.45;102401.81;5036069;28;2684;-61
2024/01/10 08:53:10;;;;;;;;;;;;;;;16.28;36.53;102402.00;5035537;28;1914;-60
2024/01/10 08:55:37;;;;;;;;;;;;;;;17.41;34.42;102396.66;5036242;28;1183;-59
2024/01/10 08:58:03;;;;;;;;;;;;;;;17.97;33.24;102390.72;5036219;28;1153;-60
2024/01/10 09:00:28;;;;;;;;;;;;;;;16.81;35.52;102397.63;5035273;28;910;-61
2024/01/10 09:02:54;;;;;;;;;;;;;;;16.32;36.50;102394.97;5038225;28;1145;-61
2024/01/10 09:05:21;;;;;;;;;;;;;;;16.76;35.75;102398.34;5042048;28;1186;-59
2024/01/10 09:07:50;;;;;;;;;;;;;;;18.06;33.35;102392.03;5018093;28;1065;-59
2024/01/10 09:10:16;;;;;;;;;;;;;;;17.22;34.54;102387.69;5035326;28;1309;-60
2024/01/10 09:12:45;;;;;;;;;;;;;;;16.57;35.79;102391.25;5034789;28;1989;-60
2024/01/10 09:15:13;;;;;;;;;;;;;;;17.51;34.56;102392.47;5041167;28;1581;-61
2024/01/10 09:17:39;;;;;;;;;;;;;;;17.69;33.67;102392.31;5042348;28;1005;-60
2024/01/10 09:20:05;;;;;;;;;;;;;;;16.71;35.46;102380.91;5035122;28;2098;-59
2024/01/10 09:22:30;;;;;;;;;;;;;;;16.26;36.43;102373.94;5035302;28;1226;-60
2024/01/10 09:24:59;;;;;;;;;;;;;;;17.55;34.17;102379.91;5035421;28;1032;-60
2024/01/10 09:27:25;;;;;;;;;;;;;;;17.52;33.97;102378.47;5041564;28;1263;-58
2024/01/10 09:29:50;;;;;;;;;;;;;;;16.68;35.65;102381.38;5035602;28;1357;-60
2024/01/10 09:32:16;;;;;;;;;;;;;;;16.50;36.20;102371.28;5035128;28;1969;-59
2024/01/10 09:34:42;;;;;;;;;;;;;;;17.98;33.59;102373.16;5035026;28;1144;-58
2024/01/10 09:37:07;;;;;;;;;;;;;;;17.14;34.87;102362.47;5035327;28;1130;-59
2024/01/10 09:39:33;;;;;;;;;;;;;;;16.49;36.17;102361.38;5035875;28;1278;-58
2024/01/10 09:41:58;;;;;;;;;;;;;;;17.37;34.54;102367.13;5017195;28;1286;-59
2024/01/10 09:44:24;;;;;;;;;;;;;;;18.12;33.18;102357.19;5018274;28;1392;-59
2024/01/10 09:46:53;;;;;;;;;;;;;;;17.01;35.31;102353.41;5021654;28;1330;-59
2024/01/10 09:49:21;;;;;;;;;;;;;;;16.43;36.07;102352.16;5039368;28;1914;-59
2024/01/10 09:51:47;;;;;;;;;;;;;;;17.72;34.17;102342.31;5022220;28;1913;-56
2024/01/10 09:54:13;;;;;;;;;;;;;;;17.56;34.38;102341.16;5039125;28;1087;-59
2024/01/10 09:56:38;;;;;;;;;;;;;;;16.72;35.70;102336.72;5039383;28;1060;-59
2024/01/10 09:59:06;;;;;;;;;;;;;;;16.39;36.85;102345.47;5039722;28;1119;-58
2024/01/10 10:01:32;;;;;;;;;;;;;;;17.91;33.88;102328.44;5021571;28;1040;-59
2024/01/10 10:03:58;;;;;;;;;;;;;;;17.41;34.52;102338.91;5039372;28;1060;-59
2024/01/10 10:06:24;;;;;;;;;;;;;;;16.61;36.05;102321.06;5021653;28;1041;-58
2024/01/10 10:08:49;;;;;;;;;;;;;;;16.43;36.75;102313.72;5039382;28;1121;-59
2024/01/10 10:11:15;;;;;;;;;;;;;;;17.94;33.73;102308.66;5038235;28;1108;-59
2024/01/10 10:13:41;;;;;;;;;;;;;;;17.36;34.69;102297.56;5038792;28;1989;-59
2024/01/10 10:16:09;;;;;;;;;;;;;;;16.53;36.09;102291.19;5038576;28;1095;-59
2024/01/10 10:18:35;;;;;;;;;;;;;;;16.13;37.21;102289.06;5038711;28;1118;-59
2024/01/10 10:21:11;;;;;;;;;;;;;;;17.64;34.32;102284.91;5039509;28;2678;-59
2024/01/10 10:23:37;;;;;;;;;;;;;;;17.88;33.81;102266.41;5037993;28;989;-59
2024/01/10 10:26:14;;;;;;;;;;;;;;;16.81;35.95;102284.19;5038325;28;1057;-59
2024/01/10 10:28:40;;;;;;;;;;;;;;;16.26;36.79;102272.41;5038192;28;1071;-59
2024/01/10 10:31:06;;;;;;;;;;;;;;;17.40;34.79;102259.41;5038213;28;1041;-59
2024/01/10 10:33:34;;;;;;;;;;;;;;;18.10;33.44;102258.34;5038021;28;1965;-59
2024/01/10 10:36:00;;;;;;;;;;;;;;;16.93;35.60;102257.56;5042900;28;1513;-58
2024/01/10 10:38:25;;;;;;;;;;;;;;;16.39;36.56;102252.94;5038665;28;1040;-60
2024/01/10 10:40:51;;;;;;;;;;;;;;;17.23;35.26;102249.16;5020774;28;1173;-62
2024/01/10 10:43:18;;;;;;;;;;;;;;;17.94;33.87;102239.88;5038504;28;1326;-63
2024/01/10 10:45:48;;;;;;;;;;;;;;;16.80;35.89;102246.78;5042112;28;1274;-62
2024/01/10 10:48:13;;;;;;;;;;;;;;;16.27;36.97;102245.78;5037762;28;1095;-62
2024/01/10 10:50:39;;;;;;;;;;;;;;;17.61;34.31;102235.91;5046197;28;2374;-63
2024/01/10 10:53:04;;;;;;;;;;;;;;;17.73;33.98;102236.69;5038133;28;1983;-64
2024/01/10 10:55:30;;;;;;;;;;;;;;;16.70;35.99;102228.97;5038393;28;1170;-66
2024/01/10 10:57:56;;;;;;;;;;;;;;;16.48;36.34;102227.91;5037264;28;1167;-63
2024/01/10 11:00:27;;;;;;;;;;;;;;;17.93;33.74;102227.19;5037609;28;1160;-63
2024/01/10 11:02:55;;;;;;;;;;;;;;;17.21;34.89;102214.75;5046102;28;978;-61
2024/01/10 11:05:22;;;;;;;;;;;;;;;16.54;36.50;102221.47;5039179;28;1166;-60
2024/01/10 11:07:48;;;;;;;;;;;;;;;16.89;35.60;102212.41;5038004;28;1031;-58
2024/01/10 11:10:14;;;;;;;;;;;;;;;18.03;33.61;102210.00;5037593;28;1302;-60
2024/01/10 11:12:48;;;;;;;;;;;;;;;16.86;35.63;102208.19;5040247;28;1913;-62
2024/01/10 11:15:13;;;;;;;;;;;;;;;16.37;36.85;102207.63;5022465;28;1240;-60
2024/01/10 11:17:44;;;;;;;;;;;;;;;17.82;34.21;102204.09;5038089;28;1021;-59
2024/01/10 11:20:13;;;;;;;;;;;;;;;17.72;34.00;102203.91;5032257;28;2404;-59
2024/01/10 11:22:44;;;;;;;;;;;;;;;16.70;36.02;102209.75;5037747;28;1143;-59
2024/01/10 11:25:10;;;;;;;;;;;;;;;16.21;36.85;102203.63;5037719;28;1030;-65
2024/01/10 11:27:36;;;;;;;;;;;;;;;17.48;34.78;102198.53;5019734;28;1060;-61
2024/01/10 11:30:04;;;;;;;;;;;;;;;17.75;34.04;102204.28;5037515;28;1144;-62
2024/01/10 11:32:30;;;;;;;;;;;;;;;16.72;36.06;102199.38;5046026;28;1890;-60
2024/01/10 11:34:59;;;;;;;;;;;;;;;16.22;36.98;102197.91;5031222;28;1393;-58
2024/01/10 11:37:28;;;;;;;;;;;;;;;17.40;34.92;102201.66;5046508;28;1243;-64
2024/01/10 11:39:54;;;;;;;;;;;;;;;17.92;33.79;102189.72;5037471;28;1060;-62
2024/01/10 11:42:23;;;;;;;;;;;;;;;16.76;35.94;102186.00;5037555;28;1064;-61
2024/01/10 11:44:52;;;;;;;;;;;;;;;16.33;36.68;102192.69;5036861;28;1127;-64
2024/01/10 11:47:19;;;;;;;;;;;;;;;17.90;34.07;102189.13;5039319;28;1002;-62
2024/01/10 11:49:57;;;;;;;;;;;;;;;17.56;34.72;102189.06;5037141;28;1872;-56
2024/01/10 11:52:25;;;;;;;;;;;;;;;16.68;36.45;102187.19;5037412;28;1902;-62
2024/01/10 11:54:51;;;;;;;;;;;;;;;16.18;37.60;102179.41;5037122;28;1137;-64
2024/01/10 11:57:17;;;;;;;;;;;;;;;17.14;35.72;102186.53;5037323;28;977;-65
2024/01/10 11:59:44;;;;;;;;;;;;;;;18.16;33.66;102175.81;5037317;28;1058;-62
2024/01/10 12:02:10;;;;;;;;;;;;;;;17.01;35.71;102182.16;5036918;28;1068;-63
2024/01/10 12:04:35;;;;;;;;;;;;;;;16.48;36.97;102189.47;5037005;28;1067;-62
2024/01/10 12:07:05;;;;;;;;;;;;;;;16.11;37.61;102185.00;5041844;28;1192;-60
2024/01/10 12:09:32;;;;;;;;;;;;;;;17.68;34.61;102186.25;5041206;28;1163;-60
2024/01/10 12:11:58;;;;;;;;;;;;;;;17.69;34.39;102180.50;5036111;28;1981;-61
2024/01/10 12:14:23;;;;;;;;;;;;;;;16.69;36.68;102182.53;5036646;28;1036;-61
2024/01/10 12:16:50;;;;;;;;;;;;;;;16.22;37.35;102177.88;5036662;28;1549;-61
2024/01/10 12:19:16;;;;;;;;;;;;;;;17.31;35.33;102184.72;5041814;28;2210;-60
2024/01/10 12:21:42;;;;;;;;;;;;;;;17.87;34.25;102176.69;5049575;28;1266;-65
2024/01/10 12:24:07;;;;;;;;;;;;;;;16.83;36.37;102188.59;5042090;28;1439;-63
2024/01/10 12:26:33;;;;;;;;;;;;;;;16.28;37.47;102185.16;5036144;28;1451;-59
2024/01/10 12:28:59;;;;;;;;;;;;;;;17.32;35.53;102180.03;5038938;28;1184;-61
2024/01/10 12:31:28;;;;;;;;;;;;;;;18.11;34.12;102173.81;5040388;28;1489;-64
2024/01/10 12:33:59;;;;;;;;;;;;;;;16.88;36.00;102169.50;5036349;28;1984;-64
2024/01/10 12:36:25;;;;;;;;;;;;;;;16.31;37.51;102175.59;5035305;28;1151;-67
2024/01/10 12:38:50;;;;;;;;;;;;;;;16.75;36.44;102174.16;5036152;28;1348;-66
2024/01/10 12:41:16;;;;;;;;;;;;;;;17.99;34.25;102175.81;5036020;28;1403;-61